createdAt,value
2023-03-12T00:02:08.810Z,14.30
2023-03-12T00:07:15.028Z,15.70
2023-03-12T00:12:19.402Z,13.50
2023-03-12T00:17:23.500Z,14.50
2023-03-12T00:22:27.810Z,15.00
2023-03-12T00:27:34.841Z,13.90
2023-03-12T00:32:39.255Z,15.40
2023-03-12T00:37:43.329Z,16.60
2023-03-12T00:42:47.375Z,15.30
2023-03-12T00:47:51.778Z,17.30
2023-03-12T00:52:56.537Z,17.70
2023-03-12T00:58:00.373Z,12.80
2023-03-12T01:03:04.722Z,11.70
2023-03-12T01:08:09.797Z,11.30
2023-03-12T01:13:16.957Z,12.40
2023-03-12T01:18:21.876Z,12.80
2023-03-12T01:23:26.590Z,12.80
2023-03-12T01:28:30.900Z,12.80
2023-03-12T01:33:34.922Z,10.00
2023-03-12T01:38:41.729Z,10.20
2023-03-12T01:43:46.947Z,10.20
2023-03-12T01:49:20.745Z,12.30
2023-03-12T01:54:35.498Z,10.00
2023-03-12T01:59:44.806Z,9.60
2023-03-12T02:04:52.263Z,10.10
2023-03-12T02:09:57.712Z,9.70
2023-03-12T02:15:02.452Z,11.60
2023-03-12T02:20:37.742Z,9.70
2023-03-12T02:25:47.584Z,8.40
2023-03-12T02:30:53.448Z,8.60
2023-03-12T02:35:58.566Z,8.70
2023-03-12T02:41:24.955Z,10.00
2023-03-12T02:46:34.096Z,7.20
2023-03-12T02:51:38.076Z,7.80
2023-03-12T02:56:43.704Z,6.60
2023-03-12T03:01:48.316Z,7.60
2023-03-12T03:06:52.888Z,5.60
2023-03-12T03:11:57.985Z,5.70
2023-03-12T03:17:03.551Z,6.10
2023-03-12T03:22:08.082Z,7.80
2023-03-12T03:27:12.769Z,5.90
2023-03-12T03:32:18.423Z,6.30
2023-03-12T03:37:24.136Z,7.00
2023-03-12T03:42:29.045Z,4.50
2023-03-12T03:47:34.022Z,7.50
2023-03-12T03:52:40.240Z,10.10
2023-03-12T03:57:44.945Z,5.40
2023-03-12T04:02:50.279Z,6.60
2023-03-12T04:07:57.035Z,8.80
2023-03-12T04:13:02.517Z,11.00
2023-03-12T04:18:07.646Z,8.20
2023-03-12T04:23:12.396Z,5.50
2023-03-12T04:28:16.986Z,5.50
2023-03-12T04:33:22.955Z,9.00
2023-03-12T04:38:30.435Z,6.20
2023-03-12T04:43:36.475Z,8.50
2023-03-12T04:48:40.632Z,8.00
2023-03-12T04:53:46.638Z,6.30
2023-03-12T04:58:51.021Z,5.60
2023-03-12T05:03:55.936Z,6.50
2023-03-12T05:09:02.033Z,7.20
2023-03-12T05:14:07.743Z,5.50
2023-03-12T05:19:12.929Z,5.60
2023-03-12T05:24:19.630Z,4.00
2023-03-12T05:29:24.144Z,5.60
2023-03-12T05:34:32.206Z,7.40
2023-03-12T05:39:39.160Z,3.30
2023-03-12T05:44:43.762Z,12.40
2023-03-12T05:49:53.943Z,5.90
2023-03-12T05:54:59.698Z,4.30
2023-03-12T06:00:04.889Z,7.30
2023-03-12T06:05:17.347Z,3.40
2023-03-12T06:10:21.623Z,9.80
2023-03-12T06:15:26.896Z,5.80
2023-03-12T06:20:31.941Z,4.00
2023-03-12T06:25:36.630Z,4.60
2023-03-12T06:30:42.350Z,7.30
2023-03-12T06:35:46.847Z,6.40
2023-03-12T06:41:00.437Z,3.50
2023-03-12T06:46:07.513Z,8.50
2023-03-12T06:51:14.216Z,4.80
2023-03-12T06:56:20.341Z,4.00
2023-03-12T07:01:24.420Z,6.80
2023-03-12T07:06:29.712Z,5.50
2023-03-12T07:11:34.104Z,4.60
2023-03-12T07:16:38.048Z,6.30
2023-03-12T07:21:42.390Z,5.80
2023-03-12T07:26:47.345Z,8.10
2023-03-12T07:31:51.750Z,10.20
2023-03-12T07:36:57.093Z,8.40
2023-03-12T07:42:01.279Z,7.40
2023-03-12T07:47:22.712Z,6.10
2023-03-12T07:52:27.561Z,9.30
2023-03-12T07:57:32.348Z,6.10
2023-03-12T08:02:37.733Z,5.60
2023-03-12T08:07:42.267Z,8.60
2023-03-12T08:12:47.061Z,8.90
2023-03-12T08:17:52.002Z,7.30
2023-03-12T08:22:55.973Z,6.70
2023-03-12T08:27:59.805Z,5.40
2023-03-12T08:33:04.937Z,10.10
2023-03-12T08:38:09.386Z,9.70
2023-03-12T08:43:14.205Z,9.90
2023-03-12T08:48:18.409Z,8.50
2023-03-12T08:53:23.838Z,6.10
2023-03-12T08:58:29.334Z,5.70
2023-03-12T09:03:33.649Z,6.90
2023-03-12T09:08:38.535Z,6.10
2023-03-12T09:14:16.913Z,5.30
2023-03-12T09:19:09.603Z,4.20
2023-03-12T09:24:14.247Z,4.50
2023-03-12T09:29:21.398Z,7.80
2023-03-12T09:34:27.657Z,4.60
2023-03-12T09:39:31.999Z,5.90
2023-03-12T09:44:43.733Z,3.50
2023-03-12T09:49:51.502Z,4.80
2023-03-12T09:55:03.204Z,4.60
2023-03-12T10:00:19.152Z,6.90
2023-03-12T10:05:45.222Z,6.20
2023-03-12T10:11:27.869Z,4.70
2023-03-12T10:16:35.746Z,4.70
2023-03-12T10:22:21.577Z,6.60
2023-03-12T10:27:30.308Z,6.60
2023-03-12T10:32:44.894Z,5.70
2023-03-12T10:38:02.302Z,6.30
2023-03-12T10:43:07.717Z,5.50
2023-03-12T10:48:19.581Z,8.80
2023-03-12T10:53:30.091Z,5.00
2023-03-12T10:58:54.512Z,5.30
2023-03-12T11:04:18.180Z,7.50
2023-03-12T11:09:22.371Z,10.70
2023-03-12T11:14:30.953Z,5.80
2023-03-12T11:19:36.162Z,4.50
2023-03-12T11:25:02.159Z,4.70
2023-03-12T11:30:09.384Z,5.50
2023-03-12T11:35:15.513Z,4.30
2023-03-12T11:40:39.325Z,8.80
2023-03-12T11:46:02.519Z,9.70
2023-03-12T11:57:13.732Z,4.80
2023-03-12T12:02:48.672Z,8.70
2023-03-12T12:08:12.572Z,5.30
2023-03-12T12:13:44.003Z,6.80
2023-03-12T12:19:27.283Z,5.00
2023-03-12T12:24:41.977Z,4.40
2023-03-12T12:30:08.652Z,4.50
2023-03-12T12:35:34.627Z,8.40
2023-03-12T12:40:49.994Z,7.50
2023-03-12T12:45:58.804Z,4.70
2023-03-12T12:51:06.944Z,6.70
2023-03-12T12:56:23.451Z,4.20
2023-03-12T13:01:28.097Z,4.50
2023-03-12T13:07:04.848Z,5.10
2023-03-12T13:12:33.544Z,4.60
2023-03-12T13:17:54.057Z,3.70
2023-03-12T13:23:23.950Z,4.20
2023-03-12T13:29:05.984Z,5.50
2023-03-12T13:34:19.768Z,3.30
2023-03-12T13:39:35.499Z,4.70
2023-03-12T13:44:40.871Z,4.60
2023-03-12T13:49:54.302Z,4.60
2023-03-12T13:55:22.200Z,6.30
2023-03-12T14:00:38.245Z,6.20
2023-03-12T14:05:56.247Z,7.20
2023-03-12T14:11:19.930Z,3.80
2023-03-12T14:16:29.097Z,4.00
2023-03-12T14:21:39.966Z,5.60
2023-03-12T14:26:46.248Z,6.70
2023-03-12T14:31:56.850Z,6.80
2023-03-12T14:37:16.699Z,7.10
2023-03-12T14:42:28.387Z,4.90
2023-03-12T14:47:53.228Z,5.50
2023-03-12T14:53:25.108Z,7.10
2023-03-12T15:03:49.867Z,6.70
2023-03-12T15:08:57.741Z,9.40
2023-03-12T15:14:09.254Z,6.40
2023-03-12T15:19:22.558Z,4.40
2023-03-12T15:29:32.197Z,7.60
2023-03-12T15:34:40.714Z,8.60
2023-03-12T15:39:52.825Z,7.00
2023-03-12T15:45:03.137Z,11.40
2023-03-12T15:50:21.396Z,8.50
2023-03-12T15:55:31.305Z,8.70
2023-03-12T16:00:46.345Z,7.20
2023-03-12T16:05:52.031Z,11.40
2023-03-12T16:10:59.677Z,5.50
2023-03-12T16:16:07.843Z,7.10
2023-03-12T16:21:14.984Z,9.30
2023-03-12T16:26:26.970Z,18.30
2023-03-12T16:31:32.066Z,27.40
2023-03-12T16:36:40.936Z,10.20
2023-03-12T16:41:51.265Z,9.60
2023-03-12T16:46:58.913Z,6.70
2023-03-12T16:52:15.593Z,8.80
2023-03-12T16:57:41.374Z,11.70
2023-03-12T17:02:50.865Z,7.20
2023-03-12T17:08:01.482Z,7.00
2023-03-12T17:13:06.421Z,7.00
2023-03-12T17:18:14.896Z,8.90
2023-03-12T17:23:22.226Z,6.30
2023-03-12T17:28:30.008Z,7.70
2023-03-12T17:33:35.983Z,8.00
2023-03-12T17:38:43.350Z,42.30
2023-03-12T17:43:51.972Z,88.50
2023-03-12T17:49:00.312Z,52.90
2023-03-12T17:54:08.814Z,50.80
2023-03-12T17:59:16.064Z,23.60
2023-03-12T18:04:27.505Z,17.40
2023-03-12T18:09:33.857Z,14.70
2023-03-12T18:14:42.803Z,15.00
2023-03-12T18:19:48.475Z,13.70
2023-03-12T18:24:58.951Z,15.90
2023-03-12T18:30:05.277Z,14.80
2023-03-12T18:35:17.759Z,13.80
2023-03-12T18:40:26.524Z,13.20
2023-03-12T18:45:37.032Z,10.00
2023-03-12T18:50:44.705Z,10.50
2023-03-12T18:56:17.809Z,9.60
2023-03-12T19:06:37.733Z,14.30
2023-03-12T19:11:52.549Z,11.70
2023-03-12T19:17:06.396Z,14.00
2023-03-12T19:22:14.246Z,11.30
2023-03-12T19:27:20.922Z,14.40
2023-03-12T19:32:40.667Z,18.10
2023-03-12T19:37:51.036Z,14.10
2023-03-12T19:42:59.030Z,12.40
2023-03-12T19:48:05.906Z,15.10
2023-03-12T19:53:13.633Z,18.30
2023-03-12T19:58:21.105Z,21.00
2023-03-12T20:03:27.984Z,17.80
2023-03-12T20:08:37.422Z,19.10
2023-03-12T20:13:54.590Z,13.90
2023-03-12T20:24:12.285Z,16.70
2023-03-12T20:29:18.811Z,13.50
2023-03-12T20:34:29.167Z,15.90
2023-03-12T20:39:38.302Z,16.50
2023-03-12T20:44:47.125Z,19.80
2023-03-12T20:49:56.976Z,17.60
2023-03-12T20:55:04.320Z,34.20
2023-03-12T21:00:12.844Z,20.10
2023-03-12T21:05:23.267Z,10.40
2023-03-12T21:10:31.800Z,9.50
2023-03-12T21:15:39.238Z,12.50
2023-03-12T21:20:44.631Z,11.50
2023-03-12T21:26:00.272Z,10.40
2023-03-12T21:31:10.877Z,10.50
2023-03-12T21:36:17.193Z,9.00
2023-03-12T21:42:16.951Z,12.50
2023-03-12T21:47:20.854Z,10.30
2023-03-12T21:52:25.136Z,9.50
2023-03-12T21:57:30.789Z,9.60
2023-03-12T22:02:34.567Z,11.50
2023-03-12T22:07:39.182Z,13.70
2023-03-12T22:12:42.855Z,12.40
2023-03-12T22:17:46.878Z,15.90
2023-03-12T22:22:50.575Z,18.10
2023-03-12T22:27:54.188Z,17.20
2023-03-12T22:32:59.218Z,15.70
2023-03-12T22:38:03.006Z,18.10
2023-03-12T22:43:07.160Z,14.50
2023-03-12T22:48:11.979Z,13.30
2023-03-12T22:53:15.901Z,16.50
2023-03-12T22:58:21.806Z,12.00
2023-03-12T23:03:28.539Z,11.90
2023-03-12T23:08:32.794Z,12.30
2023-03-12T23:13:41.895Z,15.90
2023-03-12T23:18:47.984Z,14.20
2023-03-12T23:45:13.106Z,14.90
2023-03-12T23:50:18.463Z,15.60
2023-03-12T23:55:22.258Z,12.30
